createdAt,value
2022-09-28T00:00:45.103Z,4.6
2022-09-28T00:05:47.088Z,3.7
2022-09-28T00:10:49.006Z,3.5
2022-09-28T00:15:51.237Z,3.6
2022-09-28T00:20:53.174Z,3.8
2022-09-28T00:25:55.094Z,4.2
2022-09-28T00:30:57.451Z,4
2022-09-28T00:35:59.386Z,3.1
2022-09-28T00:41:01.334Z,2.8
2022-09-28T00:46:03.751Z,3
2022-09-28T00:51:06.438Z,3.6
2022-09-28T00:56:08.486Z,3.4
2022-09-28T01:01:10.764Z,3
2022-09-28T01:06:13.128Z,2.9
2022-09-28T01:11:14.988Z,2.5
2022-09-28T01:16:16.945Z,2.2
2022-09-28T01:21:19.220Z,2.8
2022-09-28T01:26:21.663Z,3.1
2022-09-28T01:31:23.711Z,3.3
2022-09-28T01:36:26.087Z,4
2022-09-28T01:41:27.968Z,3.2
2022-09-28T01:46:30.170Z,2.5
2022-09-28T01:51:31.425Z,3.9
2022-09-28T01:56:33.476Z,1.9
2022-09-28T02:01:35.748Z,1.9
2022-09-28T02:06:37.834Z,3
2022-09-28T02:11:39.914Z,2.3
2022-09-28T02:16:42.197Z,1.9
2022-09-28T02:21:44.773Z,1.2
2022-09-28T02:26:46.766Z,2.1
2022-09-28T02:31:48.722Z,1.5
2022-09-28T02:36:51.307Z,1.5
2022-09-28T02:41:53.190Z,2.2
2022-09-28T02:46:55.321Z,1.9
2022-09-28T02:51:57.518Z,2.1
2022-09-28T02:56:59.433Z,2.6
2022-09-28T03:02:01.762Z,1.8
2022-09-28T03:07:04.144Z,2
2022-09-28T03:12:06.122Z,1.6
2022-09-28T03:17:08.009Z,3.3
2022-09-28T03:22:09.901Z,2.3
2022-09-28T03:27:12.180Z,2.3
2022-09-28T03:32:14.358Z,2
2022-09-28T03:37:16.302Z,2.4
2022-09-28T03:42:18.291Z,4
2022-09-28T03:47:20.202Z,3.7
2022-09-28T03:52:22.145Z,3.5
2022-09-28T03:57:24.132Z,3.5
2022-09-28T04:02:26.351Z,7
2022-09-28T04:07:31.001Z,5.3
2022-09-28T04:12:33.417Z,3.7
2022-09-28T04:17:39.893Z,3.5
2022-09-28T04:22:42.345Z,2.8
2022-09-28T04:27:44.386Z,2.7
2022-09-28T04:32:46.523Z,3.1
2022-09-28T04:37:48.477Z,2.2
2022-09-28T04:42:50.409Z,2.8
2022-09-28T04:47:52.930Z,2.8
2022-09-28T04:52:55.363Z,2.5
2022-09-28T04:57:57.376Z,1.8
2022-09-28T05:03:00.755Z,2.9
2022-09-28T05:08:02.756Z,3.1
2022-09-28T05:13:04.840Z,2.5
2022-09-28T05:18:06.783Z,2.5
2022-09-28T05:23:08.757Z,2.2
2022-09-28T05:28:10.717Z,2.6
2022-09-28T05:33:12.607Z,3
2022-09-28T05:38:14.446Z,2.1
2022-09-28T05:43:16.754Z,1.8
2022-09-28T05:48:18.763Z,3.1
2022-09-28T05:53:20.976Z,3.1
2022-09-28T05:58:22.988Z,2.7
2022-09-28T06:03:25.020Z,2.5
2022-09-28T06:08:27.232Z,2.2
2022-09-28T06:13:29.481Z,3.9
2022-09-28T06:18:32.241Z,2
2022-09-28T06:23:34.202Z,2.6
2022-09-28T06:28:36.120Z,2.7
2022-09-28T06:33:38.070Z,7
2022-09-28T06:38:40.211Z,3.7
2022-09-28T06:43:42.141Z,5.2
2022-09-28T06:48:44.194Z,4.3
2022-09-28T06:53:46.341Z,3.1
2022-09-28T06:58:48.307Z,3.8
2022-09-28T07:03:54.909Z,3.6
2022-09-28T07:09:03.460Z,5.6
2022-09-28T07:14:01.399Z,4
2022-09-28T07:19:03.546Z,1.9
2022-09-28T07:24:05.378Z,2.7
2022-09-28T07:29:07.281Z,4.8
2022-09-28T07:34:09.794Z,5.1
2022-09-28T07:39:12.257Z,2.2
2022-09-28T07:44:14.280Z,2.5
2022-09-28T07:49:16.936Z,2.5
2022-09-28T07:54:19.695Z,1.5
2022-09-28T07:59:21.611Z,3.4
2022-09-28T08:04:23.513Z,2.4
2022-09-28T08:09:25.464Z,1.6
2022-09-28T08:14:27.426Z,1.8
2022-09-28T08:19:29.502Z,1.3
2022-09-28T08:24:31.450Z,2.9
2022-09-28T08:29:33.324Z,2.5
2022-09-28T08:34:35.482Z,4.1
2022-09-28T08:39:35.837Z,3.1
2022-09-28T08:44:37.766Z,1.9
2022-09-28T08:49:40.287Z,3.1
2022-09-28T08:54:42.753Z,1.8
2022-09-28T08:59:44.789Z,4.7
2022-09-28T09:04:45.150Z,1.7
2022-09-28T09:09:47.100Z,1.3
2022-09-28T09:14:49.012Z,1.3
2022-09-28T09:19:51.146Z,3.6
2022-09-28T09:24:53.228Z,1.7
2022-09-28T09:29:55.237Z,1.4
2022-09-28T09:34:57.418Z,1.1
2022-09-28T09:39:59.531Z,1.3
2022-09-28T09:45:02.011Z,0.9
2022-09-28T09:50:06.802Z,2.7
2022-09-28T09:55:11.103Z,1.2
2022-09-28T10:00:13.199Z,0.8
2022-09-28T10:05:15.197Z,1.2
2022-09-28T10:10:17.088Z,0.6
2022-09-28T10:15:19.180Z,1.4
2022-09-28T10:20:19.905Z,1
2022-09-28T10:25:22.028Z,0.8
2022-09-28T10:30:23.986Z,0.5
2022-09-28T10:35:26.063Z,4
2022-09-28T10:40:28.309Z,0.9
2022-09-28T10:45:30.441Z,1
2022-09-28T10:50:32.523Z,0.9
2022-09-28T10:55:34.663Z,1.2
2022-09-28T11:00:36.676Z,1.7
2022-09-28T11:05:38.675Z,0.6
2022-09-28T11:10:40.518Z,1.1
2022-09-28T11:15:42.555Z,1.6
2022-09-28T11:20:45.559Z,1.1
2022-09-28T11:25:47.840Z,2.3
2022-09-28T11:30:50.135Z,1.4
2022-09-28T11:35:52.985Z,1.8
2022-09-28T11:40:55.492Z,1.2
2022-09-28T11:45:58.138Z,0.8
2022-09-28T11:51:00.672Z,1.4
2022-09-28T11:56:07.994Z,3.1
2022-09-28T12:01:09.030Z,1.1
2022-09-28T12:06:15.326Z,0.9
2022-09-28T12:11:17.625Z,1.2
2022-09-28T12:21:20.252Z,0.6
2022-09-28T12:26:22.287Z,2.4
2022-09-28T12:31:22.660Z,0.9
2022-09-28T12:36:25.430Z,0.7
2022-09-28T12:41:25.842Z,1.3
2022-09-28T12:46:27.839Z,1.3
2022-09-28T12:51:30.473Z,0.7
2022-09-28T12:56:32.596Z,0.9
2022-09-28T13:01:34.490Z,1.4
2022-09-28T13:06:36.977Z,1.6
2022-09-28T13:11:39.334Z,0.9
2022-09-28T13:16:41.291Z,0.8
2022-09-28T13:21:43.467Z,0.9
2022-09-28T13:26:45.611Z,0.9
2022-09-28T13:31:47.736Z,3
2022-09-28T13:36:49.842Z,0.8
2022-09-28T13:41:51.875Z,0.8
2022-09-28T13:46:53.743Z,1
2022-09-28T13:51:55.885Z,1
2022-09-28T13:56:58.088Z,0.7
2022-09-28T14:02:04.261Z,1.1
2022-09-28T14:07:09.530Z,1.1
2022-09-28T14:12:11.696Z,1
2022-09-28T14:17:13.897Z,2.2
2022-09-28T14:22:15.967Z,0.8
2022-09-28T14:27:18.912Z,2.5
2022-09-28T14:32:20.876Z,1.6
2022-09-28T14:37:22.773Z,2
2022-09-28T14:42:24.674Z,0.9
2022-09-28T14:47:26.575Z,1.9
2022-09-28T14:52:28.614Z,1.9
2022-09-28T14:57:30.790Z,2.5
2022-09-28T15:02:33.046Z,3.1
2022-09-28T15:07:35.027Z,1.3
2022-09-28T15:12:37.130Z,1.7
2022-09-28T15:17:40.157Z,2.4
2022-09-28T15:22:41.165Z,1.1
2022-09-28T15:27:43.268Z,1.7
2022-09-28T15:32:45.389Z,1.9
2022-09-28T15:37:47.544Z,2.1
2022-09-28T15:42:49.620Z,3.5
2022-09-28T15:47:55.625Z,2.5
2022-09-28T15:52:57.512Z,3.6
2022-09-28T15:57:59.519Z,3.5
2022-09-28T16:03:01.439Z,2.2
2022-09-28T16:08:04.254Z,5.7
2022-09-28T16:13:06.546Z,1.9
2022-09-28T16:18:08.812Z,1.8
2022-09-28T16:23:11.058Z,3
2022-09-28T16:28:13.683Z,3.9
2022-09-28T16:33:15.610Z,3.1
2022-09-28T16:38:17.646Z,2.3
2022-09-28T16:43:19.605Z,1.5
2022-09-28T16:48:21.507Z,2.8
2022-09-28T16:53:23.486Z,2.7
2022-09-28T16:58:27.405Z,2.6
2022-09-28T17:03:30.213Z,4.6
2022-09-28T17:08:32.582Z,3.8
2022-09-28T17:13:34.586Z,4.4
2022-09-28T17:18:37.107Z,3.2
2022-09-28T17:23:39.060Z,3.3
2022-09-28T17:28:41.030Z,2.8
2022-09-28T17:33:43.131Z,2.5
2022-09-28T17:38:45.518Z,4
2022-09-28T17:43:47.657Z,2.2
2022-09-28T17:48:49.647Z,4.2
2022-09-28T17:53:51.909Z,3.2
2022-09-28T17:58:54.254Z,3.6
2022-09-28T18:03:56.322Z,3.3
2022-09-28T18:08:58.347Z,3
2022-09-28T18:14:00.276Z,3.1
2022-09-28T18:19:02.422Z,3.6
2022-09-28T18:24:05.089Z,2
2022-09-28T18:29:07.218Z,3.4
2022-09-28T18:34:09.201Z,2.3
2022-09-28T18:39:11.159Z,2.5
2022-09-28T18:44:13.232Z,3
2022-09-28T18:49:15.643Z,3.6
2022-09-28T18:54:18.239Z,2.3
2022-09-28T18:59:20.522Z,3.9
2022-09-28T19:04:22.823Z,3.1
2022-09-28T19:09:25.243Z,3.7
2022-09-28T19:14:27.401Z,2.7
2022-09-28T19:19:29.369Z,4.7
2022-09-28T19:24:31.318Z,4.2
2022-09-28T19:29:33.470Z,3.6
2022-09-28T19:34:35.986Z,4.4
2022-09-28T19:39:38.039Z,3.6
2022-09-28T19:44:39.982Z,2.6
2022-09-28T19:49:41.990Z,3.9
2022-09-28T19:54:44.008Z,3.3
2022-09-28T19:59:49.553Z,2.8
2022-09-28T20:04:53.725Z,2.9
2022-09-28T20:09:55.765Z,3.1
2022-09-28T20:14:57.760Z,2.6
2022-09-28T20:19:59.973Z,3.6
2022-09-28T20:25:01.941Z,2.7
2022-09-28T20:30:04.298Z,2.9
2022-09-28T20:35:06.228Z,3.5
2022-09-28T20:40:08.258Z,3.7
2022-09-28T20:45:10.197Z,3.5
2022-09-28T20:50:12.116Z,2.7
2022-09-28T20:55:14.055Z,2.8
2022-09-28T21:00:16.032Z,4.1
2022-09-28T21:05:18.012Z,3.9
2022-09-28T21:10:19.989Z,2.6
2022-09-28T21:15:21.968Z,3.9
2022-09-28T21:20:24.113Z,3
2022-09-28T21:25:26.268Z,3.8
2022-09-28T21:30:28.390Z,3.8
2022-09-28T21:35:30.353Z,3.7
2022-09-28T21:40:32.551Z,4.1
2022-09-28T21:45:34.805Z,6.3
2022-09-28T21:50:36.874Z,4.8
2022-09-28T21:55:38.813Z,4
2022-09-28T22:00:40.736Z,7.9
2022-09-28T22:05:41.130Z,5
2022-09-28T22:10:43.367Z,5
2022-09-28T22:15:45.569Z,4.7
2022-09-28T22:20:47.894Z,4.7
2022-09-28T22:25:49.820Z,4.6
2022-09-28T22:30:51.886Z,5.3
2022-09-28T22:35:54.011Z,3.9
2022-09-28T22:40:55.992Z,5.1
2022-09-28T22:45:59.322Z,4
2022-09-28T22:51:01.872Z,7.9
2022-09-28T22:56:03.789Z,4.7
2022-09-28T23:01:05.970Z,4.8
2022-09-28T23:06:08.255Z,5.1
2022-09-28T23:11:10.316Z,4.6
2022-09-28T23:16:12.637Z,5
2022-09-28T23:21:15.251Z,5.2
2022-09-28T23:26:17.380Z,5
2022-09-28T23:31:19.566Z,5.7
2022-09-28T23:36:22.741Z,5.5
2022-09-28T23:41:24.883Z,5.3
2022-09-28T23:46:26.871Z,7.5
2022-09-28T23:51:29.052Z,5.6
2022-09-28T23:56:31.016Z,6.9
